Aeroporto :
LOGIN :

Iscrizione | Disclaimer

   EN    FR    IT 

 










Sommario :    VFR   VFR Marginale   IFR   IFR Intensivo   IFR Molto Intensivo
Visibilità : 
Base nubi : 
>= 8 km
>= 3000ft
5 / 8 km
1000 / 3000 ft
1500m / 5 km
500 / 1000 ft
800 / 1500m
200 / 500 ft
< 800m
< 200 ft
Simboli :   Temporali  Nebbia  Neve Forte  Precipitazioni Forti  Vento > 20 kt
SIGMETs :   Varie  Temporali  Ghiacco  Turbolenza  Onda orograficha  Ceneri Vulcaniche






- Altitudine del aeroporto : 291 ft
- Codice IATA : ORY


LFPO - Paris-Orly

ULTIMO METAR :
  • 261830Z AUTO 05010KT CAVOK 23/08 Q1032 NOSIG

METARs OBSOLETI :
  • 261800Z AUTO 04008KT 360V070 CAVOK 24/07 Q1032 NOSIG
  • 261730Z AUTO 04010KT 360V080 CAVOK 24/07 Q1032 NOSIG
  • 261700Z AUTO 03011KT 360V080 CAVOK 24/08 Q1032 NOSIG
  • 261630Z AUTO 04012KT 020V080 CAVOK 25/08 Q1032 NOSIG
  • 261600Z AUTO 06011KT 030V100 CAVOK 25/08 Q1033 NOSIG

TAF TAF LFPO
Valido dal 26 a 18 ore il 28 a 00 ore UTC


261700Z 2618/2724 04010KT CAVOK
ATIS : +33 1 49 75 65 80



MetMap, La meteo Aeronautica in un colpo d'occhio ! - Copyright ORBIFLY Dicembre 2007 - Disclaimer

ORBIFLY MET'MAP TEAM :

Programmazione e sviluppo : Alexandra Zaïnal
Concezione : Baudouin d'Aumeries
Aiuto per la programmazione : Marc-Olivier Méhu
Supporto tecnico e logistico : Manuel Goepfert
Aiuto per la traduzione : Arnaldo La Scala

Contatto : metmap@orbifly.com




FONTI E CREDITI :

   NOAA